Flight Track Log - Related Links

Times and Time Zones

All times are in EDT time to prevent confusion due to time zone crossing. See the DAL268 flight status page for this flight to view local times or setup timezone preferences in your user account.

Time Position Orientation Groundspeed Altitude Reporting Facility
EDT Latitude Longitude Course Direction KTS MPH feet Rate Location/Type
Thu 12:04:04 AM 40.6310 -73.7830 North  Level FlightAware ADS-B
Thu 12:05:25 AM 40.6320 -73.7830 360° North 11 13 18 Level FlightAware ADS-B
Thu 12:06:05 AM 40.6320 -73.7820 90° East 10 12 20 Level FlightAware ADS-B
Thu 12:06:48 AM 40.6310 -73.7820 180° South 11 13 21 Level FlightAware ADS-B
Thu 12:09:00 AM 40.8702 -73.5632 37° Northeast  Level FlightAware Approximate
Thu 12:10:00 AM 40.9823 -73.4545 30° Northeast  Level FlightAware Approximate
Thu 12:11:00 AM 41.1068 -73.3577 30° Northeast  Level FlightAware Approximate
Thu 12:11:48 AM 40.6310 -73.7810 30° Northeast 18 21  Level FlightAware ADS-B
Thu 12:12:15 AM 40.6300 -73.7820 217° Southwest 17 20 35 Level FlightAware ADS-B
Thu 12:12:41 AM 40.6290 -73.7830 217° Southwest 20 23 37 Level FlightAware ADS-B
Thu 12:13:20 AM 40.6290 -73.7810 90° East 24 28 39 Level FlightAware ADS-B
Thu 12:13:38 AM 40.6280 -73.7800 143° Southeast 23 26 43 Level FlightAware ADS-B
Thu 12:14:05 AM 40.6280 -73.7790 90° East 27 31 45 Level FlightAware ADS-B
Thu 12:14:14 AM 40.6280 -73.7780 90° East 25 29 48 Level FlightAware ADS-B
Thu 12:14:26 AM 40.6270 -73.7770 143° Southeast 23 26 49 Level FlightAware ADS-B
Thu 12:14:52 AM 40.6270 -73.7760 90° East 15 17 51 Level FlightAware ADS-B
Thu 12:15:50 AM 40.6270 -73.7750 90° East 2 2 55 Level FlightAware ADS-B
Thu 12:18:00 AM 40.8843 -73.5490 37° Northeast  Level FlightAware Approximate
Thu 12:18:08 AM 40.6270 -73.7740 37° Northeast 13 15  Level FlightAware ADS-B
Thu 12:18:38 AM 40.6260 -73.7740 180° South 19 22 134 Level FlightAware ADS-B
Thu 12:19:04 AM 40.6260 -73.7750 270° West 22 25 173 Level FlightAware ADS-B
Thu 12:19:14 AM 40.6250 -73.7750 180° South 26 30 231 Level FlightAware ADS-B
Thu 12:19:42 AM 40.6290 -73.7820 307° West 90 104 265 Level FlightAware ADS-B
Thu 12:20:07 AM 40.6350 -73.7960 299° West 155 178 450 Level FlightAware ADS-B
Thu 12:20:22 AM 40.6430 -73.8130 302° West 179 206 300 1,463 Climbing FlightAware ADS-B
Thu 12:20:48 AM 40.6500 -73.8400 289° West 191 220 1,000 1,393 Climbing FlightAware ADS-B
Thu 12:21:18 AM 40.6390 -73.8750 248° West 224 258 1,600 947 Climbing FlightAware ADS-B
Thu 12:21:26 AM 40.6330 -73.8830 225° Southwest 237 273 1,600 250 Level FlightAware ADS-B
Thu 12:21:42 AM 40.6170 -73.8940 208° Southwest 263 303 1,700 964 Climbing FlightAware ADS-B
Thu 12:22:22 AM 40.5720 -73.8700 158° South 281 323 2,500 1,925 Climbing FlightAware ADS-B
Thu 12:22:35 AM 40.5660 -73.8490 111° Southeast 265 305 3,400 2,667 Climbing FlightAware ADS-B
Thu 12:23:16 AM 40.5780 -73.7840 76° East 291 335 4,900 2,137 Climbing FlightAware ADS-B
Thu 12:23:48 AM 40.6050 -73.7370 53° Northeast 309 356 6,000 2,100 Climbing FlightAware ADS-B
Thu 12:24:16 AM 40.6331 -73.6968 47° Northeast 324 373 7,000 2,053 Climbing FlightAware ADS-B
Thu 12:24:26 AM 40.6446 -73.6859 36° Northeast 328 377 7,300 2,400 Climbing FlightAware ADS-B
Thu 12:25:01 AM 40.6916 -73.6509 29° Northeast 333 383 8,800 2,353 Climbing FlightAware ADS-B
Thu 12:25:17 AM 40.7134 -73.6348 29° Northeast 338 389 9,300 1,781 Climbing FlightAware ADS-B
Thu 12:26:05 AM 40.7820 -73.5850 29° Northeast 367 422 10,700 1,484 Climbing FlightAware ADS-B
Thu 12:26:50 AM 40.8510 -73.5340 29° Northeast 404 465 11,600 1,500 Climbing FlightAware ADS-B
Thu 12:27:29 AM 40.9120 -73.4740 37° Northeast 422 486 12,800 2,074 Climbing FlightAware ADS-B
Thu 12:28:11 AM 40.9680 -73.3940 47° Northeast 430 495 14,400 2,259 Climbing FlightAware ADS-B
Thu 12:28:54 AM 41.0260 -73.3100 48° Northeast 436 502 16,000 1,186 Climbing FlightAware ADS-B
Thu 12:29:37 AM 41.0750 -73.2360 49° Northeast 438 504 16,100 76 Climbing FlightAware ADS-B
Thu 12:30:13 AM 41.1170 -73.1750 48° Northeast 438 504 16,100  Level FlightAware ADS-B
Thu 12:31:01 AM 41.1720 -73.0940 48° Northeast 438 504 16,100  Level FlightAware ADS-B
Thu 12:31:37 AM 41.2140 -73.0320 48° Northeast 438 504 16,100  Level FlightAware ADS-B
Thu 12:32:25 AM 41.2690 -72.9510 48° Northeast 438 504 16,100 1,899 Level FlightAware ADS-B
Thu 12:37:53 AM 41.9130 -72.1450 43° Northeast 553 636 28,000 2,027 Climbing FlightAware ADS-B
Thu 12:38:35 AM 41.9890 -72.0480 43° Northeast 559 643 28,600 1,139 Climbing FlightAware ADS-B
Thu 12:39:12 AM 42.0600 -71.9560 44° Northeast 557 641 29,500 1,390 Climbing FlightAware ADS-B
Thu 12:39:57 AM 42.1430 -71.8500 43° Northeast 555 639 30,500 1,059 Climbing FlightAware ADS-B
Thu 12:40:37 AM 42.2180 -71.7520 44° Northeast 557 641 31,000 349 Climbing FlightAware ADS-B
Thu 12:41:23 AM 42.3020 -71.6430 44° Northeast 549 632 31,000 -71 Level FlightAware ADS-B
Thu 12:42:02 AM 42.3730 -71.5500 44° Northeast 548 631 30,900  Descending FlightAware ADS-B
Thu 12:42:37 AM 42.4390 -71.4630 44° Northeast 548 631 31,000 80 Climbing FlightAware ADS-B
Thu 12:43:17 AM 42.5130 -71.3660 44° Northeast 547 629 31,000  Level FlightAware ADS-B
Thu 12:44:02 AM 42.5940 -71.2590 44° Northeast 548 631 31,000 -67 Level FlightAware ADS-B
Thu 12:44:47 AM 42.6760 -71.1500 44° Northeast 550 633 30,900 -71 Descending FlightAware ADS-B
Thu 12:45:27 AM 42.7520 -71.0500 44° Northeast 548 631 30,900 71 Level FlightAware ADS-B
Thu 12:46:12 AM 42.8310 -70.9430 45° Northeast 548 631 31,000  Climbing FlightAware ADS-B
Thu 12:46:52 AM 42.9030 -70.8470 44° Northeast 548 631 30,900  Descending FlightAware ADS-B
Thu 12:47:22 AM 42.9550 -70.7760 45° Northeast 548 631 31,000  Climbing FlightAware ADS-B
Thu 12:48:07 AM 43.0430 -70.6590 44° Northeast 550 633 30,900 -67 Descending FlightAware ADS-B
Thu 12:48:52 AM 43.1270 -70.5450 45° Northeast 550 633 30,900  Level FlightAware ADS-B
Thu 12:49:22 AM 43.1810 -70.4710 45° Northeast 550 633 30,900  Level FlightAware ADS-B
Thu 12:50:02 AM 43.2530 -70.3730 45° Northeast 550 633 30,900  Level FlightAware ADS-B
Thu 12:50:47 AM 43.3370 -70.2590 45° Northeast 548 631 30,900  Level FlightAware ADS-B
Thu 12:51:37 AM 43.4260 -70.1360 45° Northeast 553 636 30,900  Level FlightAware ADS-B
Thu 12:52:23 AM 43.5100 -70.0200 45° Northeast 552 635 30,900  Level FlightAware ADS-B
Thu 12:53:03 AM 43.5820 -69.9200 45° Northeast 552 635 30,900  Level FlightAware ADS-B
Thu 12:53:43 AM 43.6550 -69.8190 45° Northeast 552 635 30,900  Level FlightAware ADS-B
Thu 12:54:33 AM 43.7360 -69.7050 45° Northeast 553 636 30,900  Level FlightAware ADS-B
Thu 12:55:23 AM 43.8330 -69.5690 45° Northeast 555 639 30,900  Level FlightAware ADS-B
Thu 12:56:03 AM 43.9060 -69.4660 45° Northeast 554 638 30,900  Level FlightAware ADS-B
Thu 12:56:39 AM 43.9690 -69.3770 45° Northeast 555 639 30,900  Level FlightAware ADS-B
Thu 12:57:23 AM 44.0490 -69.2630 46° Northeast 554 638 30,900  Level FlightAware ADS-B
Thu 12:58:00 AM 44.1120 -69.1740 45° Northeast 553 636 30,900  Level FlightAware ADS-B
Thu 12:58:33 AM 44.1720 -69.0880 46° Northeast 554 638 30,900  Level FlightAware ADS-B
Thu 12:59:27 AM 44.2690 -68.9490 46° Northeast 553 636 30,900  Level FlightAware ADS-B
Thu 01:00:17 AM 44.3590 -68.8190 46° Northeast 554 638 30,900  Level FlightAware ADS-B
Thu 01:00:58 AM 44.4340 -68.7100 46° Northeast 555 639 30,900  Level FlightAware ADS-B
Thu 01:01:41 AM 44.5090 -68.6020 46° Northeast 556 640 30,900  Level FlightAware ADS-B
Thu 01:02:21 AM 44.5810 -68.4960 46° Northeast 558 642 30,900  Level FlightAware ADS-B
Thu 01:03:07 AM 44.6620 -68.3770 46° Northeast 558 642 30,900  Level FlightAware ADS-B
Thu 01:03:39 AM 44.7200 -68.2930 46° Northeast 558 642 30,900  Level FlightAware ADS-B
Thu 01:04:22 AM 44.7960 -68.1800 47° Northeast 560 644 30,900  Level FlightAware ADS-B
Thu 01:05:03 AM 44.8690 -68.0720 46° Northeast 560 644 30,900  Level FlightAware ADS-B
Thu 01:05:39 AM 44.9350 -67.9740 46° Northeast 560 644 30,900  Level FlightAware ADS-B
Thu 01:06:23 AM 45.0110 -67.8610 46° Northeast 561 646 30,900  Level FlightAware ADS-B
Thu 01:07:03 AM 45.0830 -67.7520 47° Northeast 561 646 30,900  Level FlightAware ADS-B
Thu 01:07:56 AM 45.1770 -67.6100 47° Northeast 563 648 30,900  Level FlightAware ADS-B
Thu 01:08:37 AM 45.2500 -67.5010 46° Northeast 563 648 30,900  Level FlightAware ADS-B
Thu 01:09:22 AM 45.3280 -67.3810 47° Northeast 563 648 30,900  Level FlightAware ADS-B
Thu 01:10:03 AM 45.4010 -67.2710 47° Northeast 563 648 30,900  Level FlightAware ADS-B
Thu 01:10:37 AM 45.4620 -67.1770 47° Northeast 563 648 30,900  Level FlightAware ADS-B
Thu 01:11:22 AM 45.5440 -67.0510 47° Northeast 564 649 30,900  Level FlightAware ADS-B
Thu 01:12:02 AM 45.6130 -66.9450 47° Northeast 559 643 30,900  Level FlightAware ADS-B
Thu 01:12:46 AM 45.6910 -66.8230 48° Northeast 558 642 30,900  Level FlightAware ADS-B
Thu 01:13:27 AM 45.7640 -66.7100 47° Northeast 558 642 30,900  Level FlightAware ADS-B
Thu 01:14:07 AM 45.8310 -66.6050 47° Northeast 559 643 30,900  Level FlightAware ADS-B
Thu 01:14:52 AM 45.9130 -66.4760 48° Northeast 558 642 30,900  Level FlightAware ADS-B
Thu 01:15:22 AM 45.9670 -66.3910 48° Northeast 559 643 30,900  Level FlightAware ADS-B
Thu 01:16:08 AM 46.0420 -66.2730 47° Northeast 559 643 30,900 63 Level FlightAware ADS-B
Thu 01:16:57 AM 46.1260 -66.1390 48° Northeast 559 643 31,000 68 Climbing FlightAware ADS-B
Thu 01:17:36 AM 46.1840 -66.0470 48° Northeast 559 643 31,000  Level FlightAware ADS-B
Thu 01:18:24 AM 46.2540 -65.9330 48° Northeast 559 643 31,000  Level FlightAware ADS-B
Thu 01:19:00 AM 46.3070 -65.8480 48° Northeast 559 643 31,000  Level FlightAware ADS-B
Thu 01:19:49 AM 46.3790 -65.7320 48° Northeast 559 643 31,000  Level FlightAware ADS-B
Thu 01:20:25 AM 46.4320 -65.6470 48° Northeast 559 643 31,000  Level FlightAware ADS-B
Thu 01:21:25 AM 46.5200 -65.5050 48° Northeast 559 643 31,000  Level FlightAware ADS-B
Thu 01:22:01 AM 46.5730 -65.4190 48° Northeast 559 643 31,000  Level FlightAware ADS-B
Thu 01:22:37 AM 46.6260 -65.3340 48° Northeast 559 643 31,000  Level FlightAware ADS-B
Thu 01:23:26 AM 46.6980 -65.2170 48° Northeast 559 643 31,000  Level FlightAware ADS-B
Thu 01:24:02 AM 46.7510 -65.1310 48° Northeast 559 643 31,000  Level FlightAware ADS-B
Thu 01:24:39 AM 46.8060 -65.0430 48° Northeast 559 643 31,000  Level FlightAware ADS-B
Thu 01:25:15 AM 46.8590 -64.9570 48° Northeast 559 643 31,000  Level FlightAware ADS-B
Thu 01:26:04 AM 46.9310 -64.8400 48° Northeast 559 643 31,000  Level FlightAware ADS-B
Thu 01:26:40 AM 46.9840 -64.7530 48° Northeast 559 643 31,000 1,541 Level FlightAware ADS-B
Thu 01:27:18 AM 47.2000 -64.3333 48° Northeast 570 656 32,900 1,629 Climbing Gander Center
Thu 01:27:50 AM 47.2500 -64.2333 54° Northeast 570 656 32,900  Level Gander Center
Thu 01:28:50 AM 47.3667 -64.0667 44° Northeast 580 667 32,900  Level Gander Center
Thu 01:29:50 AM 47.4667 -63.8833 51° Northeast 580 667 32,900  Level Gander Center
Thu 01:30:49 AM 47.5667 -63.7167 48° Northeast 580 667 32,900  Level Gander Center
Thu 01:31:49 AM 47.6667 -63.5167 53° Northeast 580 667 32,900  Level Gander Center
Thu 01:32:49 AM 47.7833 -63.3167 49° Northeast 580 667 32,900  Level Gander Center
Thu 01:33:49 AM 47.8833 -63.1500 48° Northeast 580 667 32,900  Level Gander Center
Thu 01:34:49 AM 47.9833 -62.9500 53° Northeast 580 667 32,900  Level Gander Center
Thu 01:35:50 AM 48.1000 -62.7500 49° Northeast 590 679 32,900  Level Gander Center
Thu 01:36:50 AM 48.1833 -62.5833 53° Northeast 580 667 32,900  Level Gander Center
Thu 01:37:50 AM 48.3167 -62.3833 45° Northeast 590 679 32,900  Level Gander Center
Thu 01:38:49 AM 48.4167 -62.2167 48° Northeast 580 667 32,900  Level Gander Center
Thu 01:39:49 AM 48.5167 -62.0167 53° Northeast 580 667 32,900  Level Gander Center
Thu 01:40:49 AM 48.6167 -61.8333 50° Northeast 580 667 32,900  Level Gander Center
Thu 01:41:49 AM 48.7000 -61.6333 58° Northeast 580 667 32,900  Level Gander Center
Thu 01:42:49 AM 48.8167 -61.4333 48° Northeast 580 667 32,900  Level Gander Center
Thu 01:43:49 AM 48.9167 -61.2500 50° Northeast 580 667 32,900  Level Gander Center
Thu 01:44:49 AM 49.0167 -61.0500 53° Northeast 580 667 32,900  Level Gander Center
Thu 01:45:49 AM 49.1167 -60.8667 50° Northeast 580 667 32,900  Level Gander Center
Thu 01:51:49 AM 49.7180 -59.7180 50° Northeast 581 669 32,900  Level FlightAware ADS-B
Thu 01:52:55 AM 49.8100 -59.5340 52° Northeast 580 667 32,900  Level FlightAware ADS-B
Thu 01:53:31 AM 49.8610 -59.4340 52° Northeast 580 667 32,900  Level FlightAware ADS-B
Thu 01:54:19 AM 49.9280 -59.3000 52° Northeast 580 667 32,900  Level FlightAware ADS-B
Thu 01:54:55 AM 49.9790 -59.2000 52° Northeast 580 667 32,900  Level FlightAware ADS-B
Thu 01:55:43 AM 50.0460 -59.0650 52° Northeast 580 667 32,900 71 Level FlightAware ADS-B
Thu 01:56:19 AM 50.1560 -58.8170 55° Northeast 576 663 33,000  Climbing FlightAware ADS-B
Thu 01:57:03 AM 50.2210 -58.6680 56° Northeast 574 661 32,900 -63 Descending FlightAware ADS-B
Thu 01:57:54 AM 50.2940 -58.4880 58° Northeast 574 661 32,900  Level FlightAware ADS-B
Thu 01:58:52 AM 50.3640 -58.3200 57° Northeast 574 661 32,900  Level FlightAware ADS-B
Thu 01:59:28 AM 50.4080 -58.2130 57° Northeast 574 661 32,900  Level FlightAware ADS-B
Thu 02:00:18 AM 50.4833 -57.9667 57° Northeast 570 656 32,900  Level Gander Center
Thu 02:00:49 AM 50.5167 -57.8667 62° Northeast 570 656 32,900  Level Gander Center
Thu 02:01:49 AM 50.6167 -57.6500 54° Northeast 570 656 32,900  Level Gander Center
Thu 02:02:49 AM 50.6833 -57.4333 64° Northeast 570 656 32,900  Level Gander Center
Thu 02:03:49 AM 50.7833 -57.2000 56° Northeast 570 656 32,900 250 Level Gander Center
Thu 02:04:49 AM 50.8667 -57.0167 54° Northeast 570 656 33,400 496 Climbing Gander Center
Thu 02:05:50 AM 50.9500 -56.8000 59° Northeast 560 644 33,900 250 Climbing Gander Center
Thu 02:06:49 AM 51.0333 -56.5667 60° Northeast 570 656 33,900  Level Gander Center
Thu 02:07:49 AM 51.1167 -56.3833 54° Northeast 570 656 33,900  Level Gander Center
Thu 02:08:49 AM 51.2000 -56.1500 60° Northeast 580 667 33,900  Level Gander Center
Thu 02:09:49 AM 51.2833 -55.9333 58° Northeast 570 656 33,900  Level Gander Center
Thu 02:10:49 AM 51.3500 -55.7167 64° Northeast 570 656 33,900  Level Gander Center
Thu 02:11:49 AM 51.4500 -55.4833 55° Northeast 570 656 33,900  Level Gander Center
Thu 02:12:49 AM 51.5167 -55.2833 62° Northeast 570 656 33,900  Level Gander Center
Thu 02:13:49 AM 51.6167 -55.0333 57° Northeast 580 667 33,900  Level Gander Center
Thu 02:14:49 AM 51.6833 -54.8333 62° Northeast 570 656 33,900  Level Gander Center
Thu 02:15:49 AM 51.7667 -54.6000 60° Northeast 580 667 33,900  Level Gander Center
Thu 02:16:49 AM 51.8333 -54.3667 65° Northeast 570 656 33,900  Level Gander Center
Thu 02:17:49 AM 51.9333 -54.1667 51° Northeast 570 656 33,900  Level Gander Center
Thu 02:18:49 AM 52.0000 -53.9167 66° East 580 667 33,900  Level Gander Center
Thu 02:19:49 AM 52.0833 -53.7000 58° Northeast 570 656 33,900  Level Gander Center
Thu 02:20:49 AM 52.1667 -53.4167 64° Northeast 580 667 33,900  Level Gander Center
Thu 02:21:49 AM 52.2167 -53.2500 64° Northeast 580 667 33,900  Level Gander Center
Thu 02:22:49 AM 52.2833 -53.0167 65° Northeast 570 656 33,900  Level Gander Center
Thu 02:23:49 AM 52.3333 -52.7500 73° East 570 656 33,900 85 Level Gander Center
Thu 02:24:00 AM 52.2167 -53.3667 68° East 562 647 34,000  Climbing ETMS Enhanced Traffic Management System
Thu 02:24:49 AM 52.3833 -52.5333 68° East 580 667 33,900 -55 Descending Gander Center
Thu 02:25:49 AM 52.4500 -52.2667 68° East 560 644 33,900  Level Gander Center
Thu 02:26:49 AM 52.5000 -52.0333 71° East 570 656 33,900  Level Gander Center
Thu 02:27:49 AM 52.5667 -51.7667 68° East 580 667 33,900  Level Gander Center
Thu 02:28:49 AM 52.6000 -51.5667 75° East 570 656 33,900  Level Gander Center
Thu 02:29:49 AM 52.6500 -51.3333 70° East 570 656 33,900  Level Gander Center
Thu 02:30:49 AM 52.7167 -51.0833 66° East 580 667 33,900  Level Gander Center
Thu 02:31:49 AM 52.7500 -50.8333 77° East 580 667 33,900  Level Gander Center
Thu 02:32:49 AM 52.8333 -50.5667 63° Northeast 580 667 33,900  Level Gander Center
Thu 02:33:49 AM 52.9000 -50.3333 65° Northeast 580 667 33,900  Level Gander Center
Thu 02:34:49 AM 52.9167 -50.0667 84° East 570 656 33,900  Level Gander Center
Thu 02:35:49 AM 52.9833 -49.8333 65° Northeast 570 656 33,900 85 Level Gander Center
Thu 02:36:00 AM 53.0000 -50.0000 76° East 570 656 34,000 74 Climbing ETMS Enhanced Traffic Management System
Thu 02:37:10 AM 52.2167 -53.3667 68° East 562 647 34,000  Level ETMS Enhanced Traffic Management System
Thu 02:43:00 AM 52.5322 -52.0396 68° East  Level FlightAware Approximate
Thu 02:44:00 AM 52.5863 -51.8133 68° East  Level FlightAware Approximate
Thu 02:45:00 AM 52.6400 -51.5865 69° East  Level FlightAware Approximate
Thu 02:46:00 AM 52.6933 -51.3590 69° East  Level FlightAware Approximate
Thu 02:47:00 AM 52.7461 -51.1311 69° East  Level FlightAware Approximate
Thu 02:48:00 AM 52.7985 -50.9025 69° East  Level FlightAware Approximate
Thu 02:49:00 AM 52.8505 -50.6734 69° East  Level FlightAware Approximate
Thu 02:50:00 AM 52.9020 -50.4438 70° East  Level FlightAware Approximate
Thu 02:51:00 AM 52.9531 -50.2136 70° East  Level FlightAware Approximate
Thu 02:52:00 AM 53.0025 -49.9823 77° East  Level FlightAware Approximate
Thu 02:53:00 AM 53.0365 -49.7431 77° East  Level FlightAware Approximate
Thu 02:54:00 AM 53.0699 -49.5035 77° East  Level FlightAware Approximate
Thu 02:55:00 AM 53.1029 -49.2635 77° East  Level FlightAware Approximate
Thu 02:56:00 AM 53.1354 -49.0232 77° East  Level FlightAware Approximate
Thu 02:57:00 AM 53.1674 -48.7825 77° East  Level FlightAware Approximate
Thu 02:58:00 AM 53.1989 -48.5414 78° East  Level FlightAware Approximate
Thu 02:59:00 AM 53.2299 -48.3000 78° East  Level FlightAware Approximate
Thu 03:00:00 AM 53.2605 -48.0582 78° East  Level FlightAware Approximate
Thu 03:01:00 AM 53.2905 -47.8161 78° East  Level FlightAware Approximate
Thu 03:02:00 AM 53.3201 -47.5737 78° East  Level FlightAware Approximate
Thu 03:03:00 AM 53.3491 -47.3309 79° East  Level FlightAware Approximate
Thu 03:04:00 AM 53.3777 -47.0878 79° East  Level FlightAware Approximate
Thu 03:05:00 AM 53.4058 -46.8444 79° East  Level FlightAware Approximate
Thu 03:06:00 AM 53.4334 -46.6007 79° East  Level FlightAware Approximate
Thu 03:07:00 AM 53.4605 -46.3566 79° East  Level FlightAware Approximate
Thu 03:08:00 AM 53.4873 -46.1148 79° East  Level FlightAware Approximate
Thu 03:09:00 AM 53.5138 -45.8728 79° East  Level FlightAware Approximate
Thu 03:10:00 AM 53.5398 -45.6305 80° East  Level FlightAware Approximate
Thu 03:11:00 AM 53.5653 -45.3878 80° East  Level FlightAware Approximate
Thu 03:12:00 AM 53.5904 -45.1449 80° East  Level FlightAware Approximate
Thu 03:13:00 AM 53.6149 -44.9017 80° East  Level FlightAware Approximate
Thu 03:14:00 AM 53.6390 -44.6582 80° East  Level FlightAware Approximate
Thu 03:15:00 AM 53.6625 -44.4144 81° East  Level FlightAware Approximate
Thu 03:15:00 AM 54.0000 -40.0000 86° East 556 640 34,000  Level ETMS Enhanced Traffic Management System
Thu 03:16:00 AM 53.6856 -44.1704 81° East  Level FlightAware Approximate
Thu 03:17:00 AM 53.7081 -43.9261 81° East  Level FlightAware Approximate
Thu 03:18:00 AM 53.7302 -43.6815 81° East  Level FlightAware Approximate
Thu 03:19:00 AM 53.7517 -43.4367 81° East  Level FlightAware Approximate
Thu 03:20:00 AM 53.7728 -43.1916 82° East  Level FlightAware Approximate
Thu 03:21:00 AM 53.7934 -42.9463 82° East  Level FlightAware Approximate
Thu 03:22:00 AM 54.0690 -37.8979 88° East 556 640 34,000  Level FlightAware Transoceanic
Thu 03:23:00 AM 54.0750 -37.6348 88° East 556 640 34,000  Level FlightAware Transoceanic
Thu 03:24:00 AM 54.0805 -37.3715 88° East 556 640 34,000  Level FlightAware Transoceanic
Thu 03:25:00 AM 54.0854 -37.1082 88° East 556 640 34,000  Level FlightAware Transoceanic
Thu 03:26:00 AM 54.0897 -36.8448 89° East 556 640 34,000  Level FlightAware Transoceanic
Thu 03:27:00 AM 54.0934 -36.5813 89° East 556 640 34,000  Level FlightAware Transoceanic
Thu 03:28:00 AM 54.0966 -36.3178 89° East 556 640 34,000  Level FlightAware Transoceanic
Thu 03:29:00 AM 54.0992 -36.0543 89° East 556 640 34,000  Level FlightAware Transoceanic
Thu 03:30:00 AM 54.1012 -35.7908 89° East 556 640 34,000  Level FlightAware Transoceanic
Thu 03:31:00 AM 54.1027 -35.5272 90° East 556 640 34,000  Level FlightAware Transoceanic
Thu 03:32:00 AM 54.1035 -35.2636 90° East 556 640 34,000  Level FlightAware Transoceanic
Thu 03:33:00 AM 54.1038 -35.0000 90° East 556 640 34,000  Level FlightAware Transoceanic
Thu 03:34:00 AM 54.1035 -34.7364 90° East 556 640 34,000  Level FlightAware Transoceanic
Thu 03:35:00 AM 54.1027 -34.4728 90° East 556 640 34,000  Level FlightAware Transoceanic
Thu 03:36:00 AM 54.1012 -34.2092 91° East 556 640 34,000  Level FlightAware Transoceanic
Thu 03:37:00 AM 54.0992 -33.9457 91° East 556 640 34,000  Level FlightAware Transoceanic
Thu 03:38:00 AM 54.0966 -33.6822 91° East 556 640 34,000  Level FlightAware Transoceanic
Thu 03:39:00 AM 54.0934 -33.4187 91° East 556 640 34,000  Level FlightAware Transoceanic
Thu 03:40:00 AM 54.0897 -33.1552 91° East 556 640 34,000  Level FlightAware Transoceanic
Thu 03:41:00 AM 54.0854 -32.8918 92° East 556 640 34,000  Level FlightAware Transoceanic
Thu 03:42:00 AM 54.0805 -32.6285 92° East 556 640 34,000  Level FlightAware Transoceanic
Thu 03:43:00 AM 54.0750 -32.3652 92° East 556 640 34,000  Level FlightAware Transoceanic
Thu 03:44:00 AM 54.0690 -32.1021 92° East 556 640 34,000  Level FlightAware Transoceanic
Thu 03:45:00 AM 54.0624 -31.8389 93° East 556 640 34,000  Level FlightAware Transoceanic
Thu 03:46:00 AM 54.0552 -31.5759 93° East 556 640 34,000  Level FlightAware Transoceanic
Thu 03:47:00 AM 54.0474 -31.3130 93° East 556 640 34,000  Level FlightAware Transoceanic
Thu 03:48:00 AM 54.0391 -31.0502 93° East 556 640 34,000  Level FlightAware Transoceanic
Thu 03:49:00 AM 54.0302 -30.7874 93° East 556 640 34,000  Level FlightAware Transoceanic
Thu 03:50:00 AM 54.0207 -30.5248 94° East 556 640 34,000  Level FlightAware Transoceanic
Thu 03:51:00 AM 54.0106 -30.2624 94° East 556 640 34,000  Level FlightAware Transoceanic
Thu 03:52:00 AM 54.0006 -30.0138 94° East  Level FlightAware Approximate
Thu 03:53:00 AM 53.9899 -29.7655 94° East  Level FlightAware Approximate
Thu 03:54:00 AM 53.9873 -29.7798 95° East  Level FlightAware Approximate
Thu 03:55:00 AM 53.9726 -29.5321 96° East  Level FlightAware Approximate
Thu 03:55:21 AM 54.0000 -30.0000 95° East 516 594 34,000  Level ETMS Enhanced Traffic Management System
Thu 03:56:00 AM 53.9574 -29.2846 96° East  Level FlightAware Approximate
Thu 03:57:00 AM 53.9416 -29.0373 96° East  Level FlightAware Approximate
Thu 03:58:00 AM 53.9254 -28.7902 96° East  Level FlightAware Approximate
Thu 03:59:00 AM 53.9086 -28.5433 96° East  Level FlightAware Approximate
Thu 04:00:00 AM 53.8913 -28.2966 97° East  Level FlightAware Approximate
Thu 04:01:00 AM 53.8744 -28.0617 97° East 516 594 34,000  Level FlightAware Transoceanic
Thu 04:02:00 AM 53.8565 -27.8202 97° East 516 594 34,000  Level FlightAware Transoceanic
Thu 04:03:00 AM 53.8382 -27.5790 97° East 516 594 34,000  Level FlightAware Transoceanic
Thu 04:04:00 AM 53.8193 -27.3380 98° East 516 594 34,000  Level FlightAware Transoceanic
Thu 04:05:00 AM 53.8000 -27.0972 98° East 516 594 34,000  Level FlightAware Transoceanic
Thu 04:06:00 AM 53.7802 -26.8567 98° East 516 594 34,000  Level FlightAware Transoceanic
Thu 04:07:00 AM 53.7599 -26.6163 98° East 516 594 34,000  Level FlightAware Transoceanic
Thu 04:08:00 AM 53.7391 -26.3762 98° East 516 594 34,000  Level FlightAware Transoceanic
Thu 04:09:00 AM 53.7178 -26.1364 99° East 516 594 34,000  Level FlightAware Transoceanic
Thu 04:10:00 AM 53.6961 -25.8968 99° East 516 594 34,000  Level FlightAware Transoceanic
Thu 04:11:00 AM 53.6739 -25.6574 99° East 516 594 34,000  Level FlightAware Transoceanic
Thu 04:12:00 AM 53.6512 -25.4183 99° East 516 594 34,000  Level FlightAware Transoceanic
Thu 04:13:00 AM 53.6280 -25.1795 99° East 516 594 34,000  Level FlightAware Transoceanic
Thu 04:14:00 AM 53.6044 -24.9409 100° East 516 594 34,000  Level FlightAware Transoceanic
Thu 04:15:00 AM 53.5803 -24.7026 100° East 516 594 34,000  Level FlightAware Transoceanic
Thu 04:16:00 AM 53.5557 -24.4645 100° East 516 594 34,000  Level FlightAware Transoceanic
Thu 04:17:00 AM 53.5306 -24.2268 100° East 516 594 34,000  Level FlightAware Transoceanic
Thu 04:18:00 AM 53.5051 -23.9893 100° East 516 594 34,000  Level FlightAware Transoceanic
Thu 04:19:00 AM 53.4791 -23.7521 101° East 516 594 34,000  Level FlightAware Transoceanic
Thu 04:20:00 AM 53.4526 -23.5152 101° East 516 594 34,000  Level FlightAware Transoceanic
Thu 04:21:00 AM 53.4257 -23.2786 101° East 516 594 34,000  Level FlightAware Transoceanic
Thu 04:22:00 AM 53.3983 -23.0423 101° East 516 594 34,000  Level FlightAware Transoceanic
Thu 04:23:00 AM 53.3704 -22.8063 101° East 516 594 34,000  Level FlightAware Transoceanic
Thu 04:24:00 AM 53.3420 -22.5707 101° East 516 594 34,000  Level FlightAware Transoceanic
Thu 04:25:00 AM 53.3133 -22.3353 102° East 516 594 34,000  Level FlightAware Transoceanic
Thu 04:26:00 AM 53.2840 -22.1003 102° East 516 594 34,000  Level FlightAware Transoceanic
Thu 04:27:00 AM 53.2543 -21.8655 102° East 516 594 34,000  Level FlightAware Transoceanic
Thu 04:28:00 AM 53.2241 -21.6312 102° East 516 594 34,000  Level FlightAware Transoceanic
Thu 04:29:00 AM 53.1934 -21.3971 102° East 516 594 34,000  Level FlightAware Transoceanic
Thu 04:30:00 AM 53.1623 -21.1634 103° East 516 594 34,000  Level FlightAware Transoceanic
Thu 04:31:00 AM 53.1308 -20.9300 103° East 516 594 34,000  Level FlightAware Transoceanic
Thu 04:32:00 AM 53.0988 -20.6970 103° East 516 594 34,000  Level FlightAware Transoceanic
Thu 04:33:00 AM 53.0663 -20.4643 103° East 516 594 34,000  Level FlightAware Transoceanic
Thu 04:34:00 AM 53.0334 -20.2320 103° East 516 594 34,000 26 Level FlightAware Transoceanic
Thu 04:35:00 AM 52.9995 -19.9965 103° East  Level FlightAware Approximate
Thu 04:36:00 AM 53.0000 -19.9929 90° East  Level FlightAware Approximate
Thu 04:37:00 AM 52.9992 -19.7509 90° East  Level FlightAware Approximate
Thu 04:38:00 AM 52.9978 -19.5089 90° East  Level FlightAware Approximate
Thu 04:39:00 AM 52.9961 -19.2670 91° East  Level FlightAware Approximate
Thu 04:40:00 AM 52.9938 -19.0255 91° East  Level FlightAware Approximate
Thu 04:41:00 AM 52.9910 -18.7840 91° East  Level FlightAware Approximate
Thu 04:42:00 AM 52.9877 -18.5425 91° East  Level FlightAware Approximate
Thu 04:43:00 AM 52.9840 -18.3011 91° East  Level FlightAware Approximate
Thu 04:44:00 AM 52.9797 -18.0598 92° East  Level FlightAware Approximate
Thu 04:45:00 AM 52.9750 -17.8185 92° East  Level FlightAware Approximate
Thu 04:46:00 AM 52.9698 -17.5772 92° East  Level FlightAware Approximate
Thu 04:47:00 AM 52.9641 -17.3360 92° East  Level FlightAware Approximate
Thu 04:48:00 AM 52.9579 -17.0949 92° East  Level FlightAware Approximate
Thu 04:49:00 AM 52.9512 -16.8538 93° East  Level FlightAware Approximate
Thu 04:50:00 AM 52.9440 -16.6129 93° East  Level FlightAware Approximate
Thu 04:51:00 AM 52.9363 -16.3720 93° East  Level FlightAware Approximate
Thu 04:52:00 AM 52.9282 -16.1312 93° East  Level FlightAware Approximate
Thu 04:53:00 AM 52.9195 -15.8904 93° East  Level FlightAware Approximate
Thu 04:54:00 AM 52.9104 -15.6498 94° East  Level FlightAware Approximate
Thu 04:55:00 AM 52.9008 -15.4093 94° East  Level FlightAware Approximate
Thu 04:56:00 AM 52.8907 -15.1689 94° East  Level FlightAware Approximate
Thu 04:57:00 AM 52.8804 -14.9286 94° East  Level FlightAware Approximate
Thu 04:58:00 AM 52.8703 -14.6883 94° East  Level FlightAware Approximate
Thu 04:59:00 AM 52.8596 -14.4482 94° East  Level FlightAware Approximate
Thu 05:00:00 AM 52.8485 -14.2081 94° East  Level FlightAware Approximate
Thu 05:01:00 AM 52.8369 -13.9682 94° East  Level FlightAware Approximate
Thu 05:02:00 AM 52.8248 -13.7284 95° East  Level FlightAware Approximate
Thu 05:03:00 AM 52.8122 -13.4888 95° East  Level FlightAware Approximate
Thu 05:04:00 AM 52.7992 -13.2497 95° East  Level FlightAware Approximate
Thu 05:05:00 AM 52.7856 -13.0107 95° East  Level FlightAware Approximate
Thu 05:06:00 AM 52.7716 -12.7719 95° East  Level FlightAware Approximate
Thu 05:07:00 AM 52.7572 -12.5333 96° East  Level FlightAware Approximate
Thu 05:07:27 AM 52.8750 -12.9460 96° East 497 572 34,900  Level FlightAware ADS-B
Thu 05:08:00 AM 52.7422 -12.2948 96° East  Level FlightAware Approximate
Thu 05:08:09 AM 52.8660 -12.8060 96° East 496 571 34,900  Level FlightAware ADS-B
Thu 05:08:47 AM 52.8520 -12.6330 98° East 496 571 34,900  Level FlightAware ADS-B
Thu 05:09:32 AM 52.8400 -12.4790 97° East 496 571 34,900  Level FlightAware ADS-B
Thu 05:10:12 AM 52.8270 -12.3100 97° East 497 572 34,900  Level FlightAware ADS-B
Thu 05:10:52 AM 52.8150 -12.1610 98° East 497 572 34,900  Level FlightAware ADS-B
Thu 05:11:32 AM 52.8030 -12.0120 98° East 497 572 34,900  Level FlightAware ADS-B
Thu 05:12:12 AM 52.7900 -11.8630 98° East 497 572 34,900  Level FlightAware ADS-B
Thu 05:12:53 AM 52.7780 -11.7080 97° East 497 572 34,900  Level FlightAware ADS-B
Thu 05:13:32 AM 52.7650 -11.5600 98° East 498 573 34,900  Level FlightAware ADS-B
Thu 05:14:12 AM 52.7520 -11.4120 98° East 499 574 34,900  Level FlightAware ADS-B
Thu 05:14:52 AM 52.7390 -11.2620 98° East 499 574 34,900  Level FlightAware ADS-B
Thu 05:15:32 AM 52.7260 -11.1210 99° East 498 573 34,900  Level FlightAware ADS-B
Thu 05:16:12 AM 52.7120 -10.9590 98° East 499 574 34,900  Level FlightAware ADS-B
Thu 05:16:57 AM 52.6960 -10.7900 99° East 498 573 34,900  Level FlightAware ADS-B
Thu 05:17:42 AM 52.6800 -10.6170 99° East 499 574 34,900  Level FlightAware ADS-B
Thu 05:18:22 AM 52.6660 -10.4690 99° East 501 577 34,900  Level FlightAware ADS-B
Thu 05:19:02 AM 52.6520 -10.3210 99° East 505 581 34,900  Level FlightAware ADS-B
Thu 05:19:47 AM 52.6340 -10.1440 99° East 507 583 34,900  Level FlightAware ADS-B
Thu 05:20:25 AM 52.6200 -10.0000 99° East 507 583 34,900  Level FlightAware ADS-B
Thu 05:21:21 AM 52.5980 -9.7870 100° East 510 587 34,900  Level FlightAware ADS-B
Thu 05:22:06 AM 52.5810 -9.6180 99° East 511 588 34,900  Level FlightAware ADS-B
Thu 05:22:46 AM 52.5640 -9.4580 100° East 511 588 34,900  Level FlightAware ADS-B
Thu 05:23:22 AM 52.5500 -9.3250 100° East 511 588 34,900  Level FlightAware ADS-B
Thu 05:24:03 AM 52.5330 -9.1680 100° East 512 589 34,900  Level FlightAware ADS-B
Thu 05:24:47 AM 52.5150 -8.9950 100° East 512 589 34,900  Level FlightAware ADS-B
Thu 05:25:20 AM 52.4860 -8.8628 100° East 502 578 34,900  Level FlightAware UK
Thu 05:25:28 AM 52.4980 -8.8400 100° East 513 590 34,900  Level FlightAware ADS-B
Thu 05:26:12 AM 52.4790 -8.6700 100° East 515 593 34,900  Level FlightAware ADS-B
Thu 05:26:50 AM 52.4471 -8.5166 100° East 508 585 34,900  Level FlightAware UK
Thu 05:26:52 AM 52.4610 -8.5180 100° East 514 592 34,900  Level FlightAware ADS-B
Thu 05:27:37 AM 52.4410 -8.3420 100° East 514 592 34,900  Level FlightAware ADS-B
Thu 05:28:12 AM 52.4260 -8.2100 101° East 515 593 34,900  Level FlightAware ADS-B
Thu 05:28:53 AM 52.4070 -8.0540 101° East 515 593 34,900  Level FlightAware ADS-B
Thu 05:29:26 AM 52.3771 -7.9183 101° East 506 582 34,900  Level FlightAware UK
Thu 05:29:34 AM 52.3890 -7.9010 101° East 514 592 34,900  Level FlightAware ADS-B
Thu 05:30:13 AM 52.3720 -7.7590 101° East 513 590 34,900  Level FlightAware ADS-B
Thu 05:30:55 AM 52.3520 -7.5930 101° East 514 592 34,900  Level FlightAware ADS-B
Thu 05:31:32 AM 52.3191 -7.4387 101° East 502 578 34,900  Level FlightAware UK
Thu 05:31:35 AM 52.3330 -7.4370 101° East 516 594 34,900  Level FlightAware ADS-B
Thu 05:32:15 AM 52.3140 -7.2850 101° East 517 595 34,900  Level FlightAware ADS-B
Thu 05:33:01 AM 52.2910 -7.1060 102° East 519 597 34,900  Level FlightAware ADS-B
Thu 05:33:33 AM 52.2612 -6.9790 102° East 496 571 34,900  Level FlightAware UK
Thu 05:33:38 AM 52.2730 -6.9680 102° East 522 601 34,900 120 Level FlightAware ADS-B
Thu 05:34:23 AM 52.2500 -6.7890 102° East 525 604 35,000  Climbing FlightAware ADS-B
Thu 05:35:03 AM 52.2159 -6.6313 102° East 496 571 34,900 -136 Descending FlightAware UK
Thu 05:35:07 AM 52.2280 -6.6220 102° East 528 608 34,900  Level FlightAware ADS-B
Thu 05:35:39 AM 52.2110 -6.4950 102° East 528 608 34,900 79 Level FlightAware ADS-B
Thu 05:36:23 AM 52.1890 -6.3250 102° East 530 610 35,000  Climbing FlightAware ADS-B
Thu 05:37:03 AM 52.1535 -6.1642 102° East 500 575 34,900  Descending FlightAware UK
Thu 05:37:03 AM 52.1670 -6.1680 102° East 530 610 35,000  Climbing FlightAware ADS-B
Thu 05:37:33 AM 52.1375 -6.0473 102° East 500 575 34,900  Descending FlightAware UK
Thu 05:37:47 AM 52.1440 -6.0010 102° East 531 611 35,000  Climbing FlightAware ADS-B
Thu 05:38:27 AM 52.1220 -5.8410 103° East 531 611 34,900 -79 Descending FlightAware ADS-B
Thu 05:39:03 AM 52.0888 -5.6964 103° East 498 573 34,900  Level FlightAware UK
Thu 05:39:09 AM 52.1000 -5.6820 103° East 529 609 34,900 128 Level FlightAware ADS-B
Thu 05:39:50 AM 52.0760 -5.5230 104° East 530 610 35,000  Climbing FlightAware ADS-B
Thu 05:40:26 AM 52.0520 -5.3860 106° East 531 611 34,900 -74 Descending FlightAware ADS-B
Thu 05:41:11 AM 52.0220 -5.2180 106° East 532 612 34,900  Level FlightAware ADS-B
Thu 05:41:51 AM 51.9950 -5.0620 106° East 532 612 34,900 71 Level FlightAware ADS-B
Thu 05:42:36 AM 51.9630 -4.8880 106° East 535 616 35,000  Climbing FlightAware ADS-B
Thu 05:42:39 AM 51.9476 -4.8671 106° East 496 571 34,900 -182 Descending FlightAware UK
Thu 05:43:09 AM 51.9277 -4.7515 106° East 496 571 34,900  Level FlightAware UK
Thu 05:43:21 AM 51.9330 -4.7120 106° East 536 617 34,900  Level FlightAware ADS-B
Thu 05:44:06 AM 51.9020 -4.5390 106° East 533 613 34,900  Level FlightAware ADS-B
Thu 05:44:45 AM 51.8563 -4.3864 106° East 496 571 34,900 150 Level FlightAware UK
Thu 05:44:46 AM 51.8690 -4.3940 106° East 528 608 35,000  Climbing FlightAware ADS-B
Thu 05:45:27 AM 51.8360 -4.2480 110° East 529 609 34,900  Descending FlightAware ADS-B
Thu 05:46:07 AM 51.7980 -4.0870 111° Southeast 530 610 35,000  Climbing FlightAware ADS-B
Thu 05:46:47 AM 51.7650 -3.9420 111° Southeast 531 611 34,900 -136 Descending FlightAware ADS-B
Thu 05:46:51 AM 51.7485 -3.9167 111° Southeast 496 571 34,900  Level FlightAware UK
Thu 05:47:21 AM 51.7232 -3.8048 111° Southeast 498 573 34,900  Level FlightAware UK
Thu 05:47:32 AM 51.7270 -3.7730 111° Southeast 530 610 34,900  Level FlightAware ADS-B
Thu 05:48:02 AM 51.7020 -3.6630 110° East 528 608 34,900  Level FlightAware ADS-B
Thu 05:48:42 AM 51.6780 -3.5040 104° East 549 632 34,900  Level FlightAware ADS-B
Thu 05:49:33 AM 51.6616 -3.2895 97° East 551 634 34,900  Level FlightAware ADS-B
Thu 05:50:04 AM 51.6527 -3.1659 97° East 551 634 34,900  Level FlightAware ADS-B
Thu 05:50:35 AM 51.6439 -3.0388 96° East 552 635 34,900  Level FlightAware ADS-B
Thu 05:51:08 AM 51.6343 -2.9047 97° East 555 639 34,900  Level FlightAware ADS-B
Thu 05:51:39 AM 51.6249 -2.7747 97° East 557 641 34,900  Level FlightAware ADS-B
Thu 05:52:10 AM 51.6154 -2.6479 97° East 559 643 34,900  Level FlightAware ADS-B
Thu 05:52:43 AM 51.6051 -2.5112 97° East 562 647 34,900  Level FlightAware ADS-B
Thu 05:53:20 AM 51.5936 -2.3590 97° East 564 649 34,900  Level FlightAware ADS-B
Thu 05:53:50 AM 51.5838 -2.2337 97° East 565 650 34,900  Level FlightAware ADS-B
Thu 05:54:20 AM 51.5739 -2.1072 97° East 566 651 34,900  Level FlightAware ADS-B
Thu 05:54:51 AM 51.5639 -1.9813 97° East 566 651 34,900  Level FlightAware ADS-B
Thu 05:55:21 AM 51.5536 -1.8536 97° East 566 651 34,900  Level FlightAware ADS-B
Thu 05:55:52 AM 51.5431 -1.7254 97° East 565 650 34,900  Level FlightAware ADS-B
Thu 05:56:23 AM 51.5325 -1.5974 98° East 565 650 34,900  Level FlightAware ADS-B
Thu 05:56:54 AM 51.5217 -1.4694 98° East 565 650 34,900  Level FlightAware ADS-B
Thu 05:57:26 AM 51.5105 -1.3379 98° East 566 651 34,900  Level FlightAware ADS-B
Thu 05:57:56 AM 51.4999 -1.2128 98° East 567 652 34,900  Level FlightAware ADS-B
Thu 05:58:29 AM 51.4878 -1.0756 98° East 568 654 34,900  Level FlightAware ADS-B
Thu 05:59:02 AM 51.4754 -0.9355 98° East 568 654 34,900  Level FlightAware ADS-B
Thu 05:59:33 AM 51.4640 -0.8087 98° East 568 654 34,900  Level FlightAware ADS-B
Thu 06:00:03 AM 51.4526 -0.6832 98° East 567 652 34,900  Level FlightAware ADS-B
Thu 06:00:35 AM 51.4405 -0.5510 98° East 566 651 34,900  Level FlightAware ADS-B
Thu 06:01:06 AM 51.4286 -0.4243 99° East 565 650 34,900  Level FlightAware ADS-B
Thu 06:01:36 AM 51.4168 -0.2987 99° East 564 649 34,900  Level FlightAware ADS-B
Thu 06:02:06 AM 51.4051 -0.1748 99° East 563 648 34,900  Level FlightAware ADS-B
Thu 06:02:36 AM 51.3933 -0.0513 99° East 561 646 34,900  Level FlightAware ADS-B
Thu 06:03:07 AM 51.3809 0.0758 99° East 561 646 34,900  Level FlightAware ADS-B
Thu 06:03:37 AM 51.3687 0.1987 99° East 561 646 34,900  Level FlightAware ADS-B
Thu 06:04:12 AM 51.3547 0.3403 99° East 560 644 34,900  Level FlightAware ADS-B
Thu 06:04:48 AM 51.3399 0.4864 99° East 559 643 34,900  Level FlightAware ADS-B
Thu 06:05:19 AM 51.3270 0.6140 99° East 559 643 34,900  Level FlightAware ADS-B
Thu 06:05:50 AM 51.3141 0.7388 99° East 559 643 34,900  Level FlightAware ADS-B
Thu 06:06:22 AM 51.3004 0.8716 99° East 559 643 34,900  Level FlightAware ADS-B
Thu 06:06:56 AM 51.2860 1.0094 99° East 561 646 34,900  Level FlightAware ADS-B
Thu 06:07:33 AM 51.2710 1.1540 99° East 560 644 34,900  Level FlightAware ADS-B
Thu 06:08:13 AM 51.2540 1.3130 100° East 560 644 34,900  Level FlightAware ADS-B
Thu 06:08:53 AM 51.2350 1.4790 100° East 560 644 34,900  Level FlightAware ADS-B
Thu 06:09:35 AM 51.2160 1.6530 100° East 561 646 34,900  Level FlightAware ADS-B
Thu 06:10:31 AM 51.1855 1.8753 100° East 496 571 34,900  Level FlightAware UK
Thu 06:10:41 AM 51.1860 1.9230 100° East 562 647 34,900  Level FlightAware ADS-B
Thu 06:11:21 AM 51.1670 2.0850 101° East 563 648 34,900  Level FlightAware ADS-B
Thu 06:12:03 AM 51.1480 2.2500 100° East 562 647 34,900  Level FlightAware ADS-B
Thu 06:12:37 AM 51.1261 2.3894 100° East 496 571 34,900  Level FlightAware UK
Thu 06:12:44 AM 51.1280 2.4180 100° East 562 647 34,900  Level FlightAware ADS-B
Thu 06:13:19 AM 51.1059 2.5599 100° East 498 573 34,900  Level FlightAware UK
Thu 06:13:26 AM 51.1080 2.5880 100° East 561 646 34,900  Level FlightAware ADS-B
Thu 06:14:01 AM 51.0803 2.7274 100° East 498 573 34,900  Level FlightAware UK
Thu 06:14:06 AM 51.0830 2.7490 100° East 555 639 34,900  Level FlightAware ADS-B
Thu 06:14:51 AM 51.0510 2.9220 106° East 558 642 34,900  Level FlightAware ADS-B
Thu 06:15:31 AM 51.0240 3.0790 105° East 557 641 34,900  Level FlightAware ADS-B
Thu 06:16:01 AM 50.9956 3.2001 105° East 496 571 34,900  Level FlightAware UK
Thu 06:16:16 AM 50.9910 3.2600 105° East 555 639 34,900  Level FlightAware ADS-B
Thu 06:16:56 AM 50.9630 3.4150 106° East 555 639 34,900  Level FlightAware ADS-B
Thu 06:17:37 AM 50.9252 3.5760 106° East 498 573 34,900  Level FlightAware UK
Thu 06:17:41 AM 50.9300 3.5870 106° East 557 641 34,900  Level FlightAware ADS-B
Thu 06:18:22 AM 50.8990 3.7500 107° East 557 641 34,900  Level FlightAware ADS-B
Thu 06:19:06 AM 50.8650 3.9240 107° East 556 640 34,900  Level FlightAware ADS-B
Thu 06:19:43 AM 50.8297 4.0664 107° East 496 571 34,900  Level FlightAware UK
Thu 06:19:46 AM 50.8360 4.0760 107° East 556 640 34,900  Level FlightAware ADS-B
Thu 06:20:26 AM 50.8050 4.2330 107° East 557 641 34,900  Level FlightAware ADS-B
Thu 06:21:06 AM 50.7750 4.3840 107° East 557 641 34,900  Level FlightAware ADS-B
Thu 06:21:44 AM 50.7364 4.5325 107° East 498 573 34,900  Level FlightAware UK
Thu 06:21:51 AM 50.7300 4.5590 107° East 545 627 34,900  Level FlightAware ADS-B
Thu 06:22:26 AM 50.6703 4.6629 107° East 496 571 34,900  Level FlightAware UK
Thu 06:22:33 AM 50.6720 4.7000 107° East 544 626 34,900  Level FlightAware ADS-B
Thu 06:23:13 AM 50.6200 4.8310 122° Southeast 546 628 34,900  Level FlightAware ADS-B
Thu 06:23:57 AM 50.5620 4.9760 122° Southeast 543 625 34,900  Level FlightAware ADS-B
Thu 06:24:35 AM 50.5060 5.1070 124° Southeast 544 626 34,900  Level FlightAware ADS-B
Thu 06:25:19 AM 50.4460 5.2500 123° Southeast 545 627 34,900  Level FlightAware ADS-B
Thu 06:26:03 AM 50.3860 5.3930 123° Southeast 546 628 34,900  Level FlightAware ADS-B
Thu 06:26:47 AM 50.3230 5.5430 123° Southeast 546 628 34,900  Level FlightAware ADS-B
Thu 06:27:23 AM 50.2770 5.6540 123° Southeast 545 627 34,900  Level FlightAware ADS-B
Thu 06:28:09 AM 50.2150 5.8000 124° Southeast 545 627 34,900  Level FlightAware ADS-B
Thu 06:29:05 AM 50.1320 5.9960 123° Southeast 546 628 34,900  Level FlightAware ADS-B
Thu 06:29:37 AM 50.0900 6.0940 124° Southeast 547 629 34,900  Level FlightAware ADS-B
Thu 06:30:21 AM 50.0270 6.2410 124° Southeast 547 629 34,900  Level FlightAware ADS-B
Thu 06:31:05 AM 49.9650 6.3830 124° Southeast 548 631 34,900  Level FlightAware ADS-B
Thu 06:31:39 AM 49.9150 6.4970 124° Southeast 548 631 34,900  Level FlightAware ADS-B
Thu 06:32:21 AM 49.8560 6.6310 124° Southeast 547 629 34,900  Level FlightAware ADS-B
Thu 06:33:05 AM 49.7920 6.7750 125° Southeast 548 631 34,900  Level FlightAware ADS-B
Thu 06:33:29 AM 49.7580 6.8540 124° Southeast 548 631 34,900  Level FlightAware ADS-B
Thu 06:34:13 AM 49.6940 6.9960 125° Southeast 549 632 34,900  Level FlightAware ADS-B
Thu 06:34:57 AM 49.6330 7.1340 124° Southeast 550 633 34,900  Level FlightAware ADS-B
Thu 06:35:37 AM 49.5730 7.2660 125° Southeast 549 632 34,900  Level FlightAware ADS-B
Thu 06:36:01 AM 49.5390 7.3440 124° Southeast 549 632 34,900 87 Level FlightAware ADS-B
Thu 06:36:46 AM 49.4720 7.4820 127° Southeast 547 629 35,000  Climbing FlightAware ADS-B
Thu 06:37:31 AM 49.3950 7.6150 132° Southeast 547 629 34,900 -69 Descending FlightAware ADS-B
Thu 06:38:13 AM 49.3260 7.7340 132° Southeast 547 629 34,900  Level FlightAware ADS-B
Thu 06:38:57 AM 49.2500 7.8660 131° Southeast 546 628 34,900  Level FlightAware ADS-B
Thu 06:39:48 AM 49.1670 8.0060 132° Southeast 547 629 34,900  Level FlightAware ADS-B
Thu 06:40:23 AM 49.1080 8.1060 132° Southeast 547 629 34,900  Level FlightAware ADS-B
Thu 06:41:08 AM 49.0290 8.2370 133° Southeast 547 629 34,900  Level FlightAware ADS-B
Thu 06:41:49 AM 48.9590 8.3550 132° Southeast 547 629 34,900  Level FlightAware ADS-B
Thu 06:42:33 AM 48.8830 8.4800 133° Southeast 548 631 34,900  Level FlightAware ADS-B
Thu 06:43:15 AM 48.8120 8.5980 132° Southeast 551 634 34,900  Level FlightAware ADS-B
Thu 06:43:50 AM 48.7550 8.6920 133° Southeast 552 635 34,900  Level FlightAware ADS-B
Thu 06:44:36 AM 48.6730 8.8260 133° Southeast 548 631 34,900 71 Level FlightAware ADS-B
Thu 06:45:15 AM 48.6040 8.9390 133° Southeast 549 632 35,000 730 Climbing FlightAware ADS-B
Thu 06:45:50 AM 48.5420 9.0380 133° Southeast 545 627 35,800 1,259 Climbing FlightAware ADS-B
Thu 06:46:36 AM 48.4630 9.1630 134° Southeast 544 626 36,700 837 Climbing FlightAware ADS-B
Thu 06:47:16 AM 48.3950 9.2710 133° Southeast 546 628 37,000 162 Climbing FlightAware ADS-B
Thu 06:47:50 AM 48.3340 9.3670 134° Southeast 546 628 36,900 -80 Descending FlightAware ADS-B
Thu 06:48:31 AM 48.2630 9.4820 133° Southeast 545 627 36,900  Level FlightAware ADS-B
Thu 06:49:15 AM 48.1840 9.6080 133° Southeast 544 626 36,900  Level FlightAware ADS-B
Thu 06:49:55 AM 48.1210 9.7090 133° Southeast 546 628 36,900  Level FlightAware ADS-B
Thu 06:50:37 AM 48.0400 9.8360 134° Southeast 552 635 36,900  Level FlightAware ADS-B
Thu 06:51:23 AM 47.9610 9.9590 134° Southeast 553 636 36,900  Level FlightAware ADS-B
Thu 06:52:03 AM 47.8890 10.0720 134° Southeast 555 639 36,900  Level FlightAware ADS-B
Thu 06:52:33 AM 47.8340 10.1330 143° Southeast 537 618 36,900  Level FlightAware ADS-B
Thu 06:53:13 AM 47.7330 10.1790 163° South 536 617 36,900  Level FlightAware ADS-B
Thu 06:53:58 AM 47.6420 10.2690 146° Southeast 553 636 36,900  Level FlightAware ADS-B
Thu 06:54:38 AM 47.5690 10.3800 134° Southeast 555 639 36,900  Level FlightAware ADS-B
Thu 06:55:23 AM 47.4900 10.4990 134° Southeast 555 639 36,900  Level FlightAware ADS-B
Thu 06:56:02 AM 47.4100 10.6110 137° Southeast 555 639 36,900  Level FlightAware ADS-B
Thu 06:56:53 AM 47.3200 10.7360 137° Southeast 556 640 36,900  Level FlightAware ADS-B
Thu 06:57:38 AM 47.2350 10.8550 136° Southeast 556 640 36,900  Level FlightAware ADS-B
Thu 06:58:24 AM 47.1520 10.9720 136° Southeast 556 640 36,900  Level FlightAware ADS-B
Thu 06:59:03 AM 47.0790 11.0740 136° Southeast 556 640 36,900  Level FlightAware ADS-B
Thu 06:59:48 AM 47.0000 11.1830 137° Southeast 556 640 36,900  Level FlightAware ADS-B
Thu 07:00:18 AM 46.9360 11.2720 136° Southeast 557 641 36,900  Level FlightAware ADS-B
Thu 07:01:03 AM 46.8580 11.3790 137° Southeast 556 640 36,900  Level FlightAware ADS-B
Thu 07:01:40 AM 46.7860 11.4780 137° Southeast 557 641 36,900  Level FlightAware ADS-B
Thu 07:02:38 AM 46.6750 11.6300 137° Southeast 551 634 36,900  Level FlightAware ADS-B
Thu 07:03:18 AM 46.6020 11.7290 137° Southeast 551 634 36,900  Level FlightAware ADS-B
Thu 07:03:59 AM 46.5240 11.8340 137° Southeast 551 634 36,900  Level FlightAware ADS-B
Thu 07:04:38 AM 46.4530 11.9290 137° Southeast 551 634 36,900  Level FlightAware ADS-B
Thu 07:05:23 AM 46.3670 12.0440 137° Southeast 551 634 36,900  Level FlightAware ADS-B
Thu 07:06:03 AM 46.2840 12.1550 137° Southeast 551 634 36,900  Level FlightAware ADS-B
Thu 07:06:38 AM 46.2200 12.2400 137° Southeast 551 634 36,900  Level FlightAware ADS-B
Thu 07:07:18 AM 46.1420 12.3430 138° Southeast 551 634 36,900  Level FlightAware ADS-B
Thu 07:08:04 AM 46.0590 12.4530 137° Southeast 551 634 36,900  Level FlightAware ADS-B
Thu 07:08:38 AM 45.9900 12.5430 138° Southeast 550 633 36,900  Level FlightAware ADS-B
Thu 07:09:19 AM 45.9200 12.6340 138° Southeast 550 633 36,900  Level FlightAware ADS-B
Thu 07:09:59 AM 45.8390 12.7400 138° Southeast 551 634 36,900  Level FlightAware ADS-B
Thu 07:10:44 AM 45.7530 12.8520 138° Southeast 552 635 36,900  Level FlightAware ADS-B
Thu 07:11:28 AM 45.6690 12.9600 138° Southeast 558 642 36,900  Level FlightAware ADS-B
Thu 07:12:09 AM 45.5900 13.0600 138° Southeast 558 642 36,900  Level FlightAware ADS-B
Thu 07:12:48 AM 45.5130 13.1590 138° Southeast 557 641 36,900  Level FlightAware ADS-B
Thu 07:13:23 AM 45.4460 13.2450 138° Southeast 551 634 36,900  Level FlightAware ADS-B
Thu 07:14:03 AM 45.3810 13.3590 129° Southeast 548 631 36,900  Level FlightAware ADS-B
Thu 07:14:48 AM 45.3130 13.4870 127° Southeast 554 638 36,900  Level FlightAware ADS-B
Thu 07:15:23 AM 45.2560 13.5890 128° Southeast 554 638 36,900  Level FlightAware ADS-B
Thu 07:16:03 AM 45.1980 13.6990 127° Southeast 549 632 36,900  Level FlightAware ADS-B
Thu 07:16:48 AM 45.1280 13.8330 126° Southeast 550 633 36,900  Level FlightAware ADS-B
Thu 07:17:45 AM 45.0470 13.9820 128° Southeast 555 639 36,900  Level FlightAware ADS-B
Thu 07:18:24 AM 44.9760 14.1130 127° Southeast 554 638 36,900  Level FlightAware ADS-B
Thu 07:19:09 AM 44.9150 14.2260 127° Southeast 554 638 36,900  Level FlightAware ADS-B
Thu 07:19:45 AM 44.8560 14.3340 128° Southeast 554 638 36,900  Level FlightAware ADS-B
Thu 07:20:29 AM 44.7880 14.4570 128° Southeast 553 636 36,900  Level FlightAware ADS-B
Thu 07:21:12 AM 44.7250 14.5720 128° Southeast 553 636 36,900  Level FlightAware ADS-B
Thu 07:21:54 AM 44.6480 14.7100 128° Southeast 551 634 36,900  Level FlightAware ADS-B
Thu 07:22:38 AM 44.5830 14.8260 128° Southeast 551 634 36,900  Level FlightAware ADS-B
Thu 07:23:36 AM 44.4890 14.9930 128° Southeast 549 632 36,900  Level FlightAware ADS-B
Thu 07:24:11 AM 44.4380 15.0850 128° Southeast 548 631 36,900  Level FlightAware ADS-B
Thu 07:25:01 AM 44.3640 15.2190 128° Southeast 547 629 36,900  Level FlightAware ADS-B
Thu 07:25:36 AM 44.3060 15.3200 129° Southeast 544 626 36,900  Level FlightAware ADS-B
Thu 07:26:19 AM 44.2380 15.4410 128° Southeast 546 628 36,900  Level FlightAware ADS-B
Thu 07:27:06 AM 44.1620 15.5750 128° Southeast 544 626 36,900  Level FlightAware ADS-B
Thu 07:27:41 AM 44.1060 15.6730 128° Southeast 544 626 36,900  Level FlightAware ADS-B
Thu 07:28:26 AM 44.0370 15.7930 129° Southeast 542 624 36,900  Level FlightAware ADS-B
Thu 07:29:11 AM 43.9640 15.9210 128° Southeast 540 621 36,900  Level FlightAware ADS-B
Thu 07:29:52 AM 43.9040 16.0260 128° Southeast 538 619 36,900  Level FlightAware ADS-B
Thu 07:30:36 AM 43.8350 16.1450 129° Southeast 530 610 36,900  Level FlightAware ADS-B
Thu 07:31:11 AM 43.7810 16.2390 128° Southeast 528 608 36,900  Level FlightAware ADS-B
Thu 07:32:01 AM 43.7030 16.3740 129° Southeast 525 604 36,900  Level FlightAware ADS-B
Thu 07:32:41 AM 43.6400 16.4800 129° Southeast 521 600 36,900  Level FlightAware ADS-B
Thu 07:33:18 AM 43.5900 16.5660 129° Southeast 519 597 36,900  Level FlightAware ADS-B
Thu 07:34:01 AM 43.5190 16.6870 129° Southeast 516 594 36,900  Level FlightAware ADS-B
Thu 07:34:49 AM 43.4510 16.8030 129° Southeast 514 592 36,900  Level FlightAware ADS-B
Thu 07:35:27 AM 43.3900 16.9060 129° Southeast 514 592 36,900  Level FlightAware ADS-B
Thu 07:36:11 AM 43.3220 17.0210 129° Southeast 513 590 36,900  Level FlightAware ADS-B
Thu 07:36:52 AM 43.2610 17.1230 129° Southeast 516 594 36,900  Level FlightAware ADS-B
Thu 07:37:31 AM 43.2030 17.2210 129° Southeast 513 590 36,900  Level FlightAware ADS-B
Thu 07:38:11 AM 43.1420 17.3230 129° Southeast 513 590 36,900  Level FlightAware ADS-B
Thu 07:38:52 AM 43.0810 17.4250 129° Southeast 513 590 36,900  Level FlightAware ADS-B
Thu 07:39:31 AM 43.0230 17.5210 130° Southeast 513 590 36,900  Level FlightAware ADS-B
Thu 07:40:28 AM 42.9350 17.6660 130° Southeast 515 593 36,900  Level FlightAware ADS-B
Thu 07:41:09 AM 42.8730 17.7690 129° Southeast 517 595 36,900  Level FlightAware ADS-B
Thu 07:41:52 AM 42.8070 17.8780 130° Southeast 517 595 36,900  Level FlightAware ADS-B
Thu 07:42:24 AM 42.7570 17.9600 130° Southeast 517 595 36,900  Level FlightAware ADS-B
Thu 07:43:06 AM 42.6920 18.0660 130° Southeast 517 595 36,900  Level FlightAware ADS-B
Thu 07:43:52 AM 42.6230 18.1780 130° Southeast 510 587 36,900  Level FlightAware ADS-B
Thu 07:44:28 AM 42.5690 18.2630 131° Southeast 508 585 36,900  Level FlightAware ADS-B
Thu 07:45:13 AM 42.4940 18.3610 136° Southeast 513 590 36,900  Level FlightAware ADS-B
Thu 07:45:53 AM 42.4240 18.4560 135° Southeast 505 581 36,900  Level FlightAware ADS-B
Thu 07:46:39 AM 42.3480 18.5590 135° Southeast 508 585 36,900  Level FlightAware ADS-B
Thu 07:47:13 AM 42.2890 18.6400 135° Southeast 507 583 36,900  Level FlightAware ADS-B
Thu 07:47:51 AM 42.2280 18.7230 135° Southeast 505 581 36,900  Level FlightAware ADS-B
Thu 07:48:35 AM 42.1550 18.8230 135° Southeast 504 580 36,900  Level FlightAware ADS-B
Thu 07:49:27 AM 42.0710 18.9370 135° Southeast 502 578 36,900  Level FlightAware ADS-B
Thu 07:50:07 AM 42.0050 19.0260 135° Southeast 502 578 36,900  Level FlightAware ADS-B
Thu 07:50:49 AM 41.9350 19.1200 135° Southeast 501 577 36,900  Level FlightAware ADS-B
Thu 07:51:27 AM 41.8740 19.2020 135° Southeast 502 578 36,900  Level FlightAware ADS-B
Thu 07:52:15 AM 41.7940 19.3080 135° Southeast 501 577 36,900  Level FlightAware ADS-B
Thu 07:52:55 AM 41.7250 19.3900 138° Southeast 499 574 36,900  Level FlightAware ADS-B
Thu 07:53:33 AM 41.6610 19.4620 140° Southeast 498 573 36,900  Level FlightAware ADS-B
Thu 07:54:17 AM 41.5830 19.5510 140° Southeast 497 572 36,900  Level FlightAware ADS-B
Thu 07:54:55 AM 41.5140 19.6290 140° Southeast 497 572 36,900  Level FlightAware ADS-B
Thu 07:55:37 AM 41.4410 19.7160 138° Southeast 499 574 36,900  Level FlightAware ADS-B
Thu 07:56:17 AM 41.3770 19.7980 136° Southeast 500 575 36,900  Level FlightAware ADS-B
Thu 07:57:01 AM 41.3030 19.8960 135° Southeast 501 577 36,900  Level FlightAware ADS-B
Thu 07:57:41 AM 41.2390 19.9810 135° Southeast 502 578 36,900  Level FlightAware ADS-B
Thu 07:58:25 AM 41.1630 20.0780 136° Southeast 504 580 36,900  Level FlightAware ADS-B
Thu 07:59:05 AM 41.0960 20.1640 136° Southeast 504 580 36,900  Level FlightAware ADS-B
Thu 07:59:49 AM 41.0240 20.2560 136° Southeast 504 580 36,900  Level FlightAware ADS-B
Thu 08:00:33 AM 40.9490 20.3510 136° Southeast 503 579 36,900 73 Level FlightAware ADS-B
Thu 08:01:11 AM 40.8860 20.4310 136° Southeast 504 580 37,000  Climbing FlightAware ADS-B
Thu 08:01:55 AM 40.8110 20.5270 136° Southeast 505 581 36,900 -71 Descending FlightAware ADS-B
Thu 08:02:36 AM 40.7400 20.6160 136° Southeast 504 580 36,900  Level FlightAware ADS-B
Thu 08:03:18 AM 40.6690 20.7060 136° Southeast 502 578 36,900  Level FlightAware ADS-B
Thu 08:03:59 AM 40.6010 20.7920 136° Southeast 502 578 36,900  Level FlightAware ADS-B
Thu 08:04:41 AM 40.5300 20.8800 137° Southeast 502 578 36,900  Level FlightAware ADS-B
Thu 08:05:26 AM 40.4550 20.9730 137° Southeast 503 579 36,900  Level FlightAware ADS-B
Thu 08:06:06 AM 40.3890 21.0550 137° Southeast 503 579 36,900  Level FlightAware ADS-B
Thu 08:06:50 AM 40.3120 21.1500 137° Southeast 503 579 36,900  Level FlightAware ADS-B
Thu 08:07:30 AM 40.2430 21.2330 137° Southeast 503 579 36,900  Level FlightAware ADS-B
Thu 08:08:14 AM 40.1670 21.3250 137° Southeast 504 580 36,900  Level FlightAware ADS-B
Thu 08:08:54 AM 40.1000 21.4070 137° Southeast 505 581 36,900  Level FlightAware ADS-B
Thu 08:09:36 AM 40.0290 21.4940 137° Southeast 504 580 36,900  Level FlightAware ADS-B
Thu 08:10:16 AM 39.9610 21.5760 137° Southeast 503 579 36,900  Level FlightAware ADS-B
Thu 08:10:52 AM 39.8990 21.6500 138° Southeast 503 579 36,900  Level FlightAware ADS-B
Thu 08:11:32 AM 39.8300 21.7330 137° Southeast 503 579 36,900  Level FlightAware ADS-B
Thu 08:12:17 AM 39.7520 21.8260 137° Southeast 503 579 36,900  Level FlightAware ADS-B
Thu 08:12:53 AM 39.6900 21.9000 137° Southeast 504 580 36,900  Level FlightAware ADS-B
Thu 08:13:33 AM 39.6240 21.9790 137° Southeast 506 582 36,900 74 Level FlightAware ADS-B
Thu 08:14:14 AM 39.5540 22.0610 138° Southeast 506 582 37,000  Climbing FlightAware ADS-B
Thu 08:14:58 AM 39.4800 22.1480 138° Southeast 508 585 36,900 -79 Descending FlightAware ADS-B
Thu 08:15:30 AM 39.4230 22.2160 137° Southeast 509 586 36,900  Level FlightAware ADS-B
Thu 08:16:09 AM 39.3530 22.2980 138° Southeast 511 588 36,900  Level FlightAware ADS-B
Thu 08:16:39 AM 39.3010 22.3590 138° Southeast 511 588 36,900  Level FlightAware ADS-B
Thu 08:17:19 AM 39.2300 22.4410 138° Southeast 512 589 36,900  Level FlightAware ADS-B
Thu 08:18:03 AM 39.1510 22.5340 138° Southeast 512 589 36,900  Level FlightAware ADS-B
Thu 08:18:41 AM 39.0880 22.6060 138° Southeast 507 583 36,900  Level FlightAware ADS-B
Thu 08:19:26 AM 39.0050 22.7020 138° Southeast 507 583 36,900  Level FlightAware ADS-B
Thu 08:20:05 AM 38.9400 22.7760 138° Southeast 514 592 36,900  Level FlightAware ADS-B
Thu 08:20:49 AM 38.8700 22.8580 138° Southeast 514 592 36,900  Level FlightAware ADS-B
Thu 08:21:31 AM 38.7820 22.9590 138° Southeast 516 594 36,900 77 Level FlightAware ADS-B
Thu 08:22:07 AM 38.7180 23.0310 139° Southeast 515 593 37,000  Climbing FlightAware ADS-B
Thu 08:22:56 AM 38.6300 23.1310 138° Southeast 516 594 36,900 -67 Descending FlightAware ADS-B
Thu 08:23:36 AM 38.5580 23.2120 139° Southeast 516 594 36,900  Level FlightAware ADS-B
Thu 08:24:16 AM 38.4880 23.2920 138° Southeast 517 595 36,900  Level FlightAware ADS-B
Thu 08:24:56 AM 38.4160 23.3730 139° Southeast 517 595 36,900  Level FlightAware ADS-B
Thu 08:25:36 AM 38.3430 23.4550 139° Southeast 518 596 36,900  Level FlightAware ADS-B
Thu 08:26:16 AM 38.2720 23.5350 138° Southeast 517 595 36,900  Level FlightAware ADS-B
Thu 08:26:52 AM 38.2070 23.6080 139° Southeast 517 595 36,900  Level FlightAware ADS-B
Thu 08:27:37 AM 38.1260 23.6980 139° Southeast 516 594 36,900  Level FlightAware ADS-B
Thu 08:28:16 AM 38.0560 23.7760 139° Southeast 515 593 36,900  Level FlightAware ADS-B
Thu 08:29:02 AM 37.9750 23.8690 138° Southeast 521 600 36,900  Level FlightAware ADS-B
Thu 08:29:42 AM 37.9110 23.9640 130° Southeast 531 611 36,900  Level FlightAware ADS-B
Thu 08:30:26 AM 37.8490 24.0750 125° Southeast 531 611 36,900  Level FlightAware ADS-B
Thu 08:31:06 AM 37.7950 24.1770 124° Southeast 537 618 36,900  Level FlightAware ADS-B
Thu 08:31:42 AM 37.7470 24.2750 122° Southeast 537 618 36,900  Level FlightAware ADS-B
Thu 08:32:21 AM 37.6960 24.3770 122° Southeast 537 618 36,900  Level FlightAware ADS-B
Thu 08:33:05 AM 37.6360 24.4950 123° Southeast 537 618 36,900  Level FlightAware ADS-B
Thu 08:33:45 AM 37.5820 24.6000 123° Southeast 536 617 36,900  Level FlightAware ADS-B
Thu 08:34:41 AM 37.5070 24.7440 123° Southeast 535 616 36,900  Level FlightAware ADS-B
Thu 08:35:26 AM 37.4460 24.8630 123° Southeast 535 616 36,900  Level FlightAware ADS-B
Thu 08:36:06 AM 37.3910 24.9680 123° Southeast 534 615 36,900  Level FlightAware ADS-B
Thu 08:36:50 AM 37.3320 25.0810 123° Southeast 535 616 36,900  Level FlightAware ADS-B
Thu 08:37:30 AM 37.2780 25.1850 123° Southeast 535 616 36,900  Level FlightAware ADS-B
Thu 08:38:12 AM 37.2200 25.2960 123° Southeast 536 617 36,900  Level FlightAware ADS-B
Thu 08:38:54 AM 37.1620 25.4060 123° Southeast 537 618 36,900  Level FlightAware ADS-B
Thu 08:39:38 AM 37.1030 25.5190 123° Southeast 537 618 36,900  Level FlightAware ADS-B
Thu 08:40:16 AM 37.0520 25.6160 123° Southeast 536 617 36,900  Level FlightAware ADS-B
Thu 08:40:52 AM 37.0020 25.7100 124° Southeast 536 617 36,900  Level FlightAware ADS-B
Thu 08:41:36 AM 36.9420 25.8230 124° Southeast 536 617 36,900  Level FlightAware ADS-B
Thu 08:42:12 AM 36.8920 25.9160 124° Southeast 535 616 36,900  Level FlightAware ADS-B
Thu 08:42:59 AM 36.8280 26.0360 124° Southeast 535 616 36,900  Level FlightAware ADS-B
Thu 08:43:42 AM 36.7680 26.1480 124° Southeast 538 619 36,900  Level FlightAware ADS-B
Thu 08:44:22 AM 36.7120 26.2530 124° Southeast 537 618 36,900  Level FlightAware ADS-B
Thu 08:45:06 AM 36.6520 26.3640 124° Southeast 536 617 36,900  Level FlightAware ADS-B
Thu 08:45:38 AM 36.6070 26.4470 124° Southeast 536 617 36,900  Level FlightAware ADS-B
Thu 08:46:24 AM 36.5440 26.5650 124° Southeast 536 617 36,900  Level FlightAware ADS-B
Thu 08:47:04 AM 36.4880 26.6680 124° Southeast 537 618 36,900  Level FlightAware ADS-B
Thu 08:47:40 AM 36.4380 26.7600 124° Southeast 536 617 36,900  Level FlightAware ADS-B
Thu 08:48:24 AM 36.3780 26.8700 124° Southeast 538 619 36,900  Level FlightAware ADS-B
Thu 08:49:02 AM 36.3250 26.9670 124° Southeast 538 619 36,900  Level FlightAware ADS-B
Thu 08:49:41 AM 36.2790 27.0510 124° Southeast 538 619 36,900  Level FlightAware ADS-B
Thu 08:50:17 AM 36.2370 27.1300 123° Southeast 538 619 36,900  Level FlightAware ADS-B
Thu 08:53:00 AM 36.0297 27.5522 121° Southeast  Level Estimated
Thu 08:53:21 AM 35.9600 27.6280 121° Southeast 542 624 36,900  Level FlightAware ADS-B
Thu 08:54:01 AM 35.9040 27.7290 124° Southeast 542 624 36,900  Level FlightAware ADS-B
Thu 08:54:41 AM 35.8470 27.8310 125° Southeast 541 623 36,900  Level FlightAware ADS-B
Thu 08:55:17 AM 35.8020 27.9110 125° Southeast 541 623 36,900  Level FlightAware ADS-B
Thu 08:56:06 AM 35.7340 28.0330 124° Southeast 541 623 36,900  Level FlightAware ADS-B
Thu 08:56:40 AM 35.6760 28.1340 125° Southeast 536 617 36,900  Level FlightAware ADS-B
Thu 08:57:22 AM 35.6160 28.2400 125° Southeast 534 615 36,900  Level FlightAware ADS-B
Thu 08:58:05 AM 35.5570 28.3450 125° Southeast 532 612 36,900  Level FlightAware ADS-B
Thu 08:58:38 AM 35.5100 28.4270 125° Southeast 531 611 36,900  Level FlightAware ADS-B
Thu 08:59:22 AM 35.4470 28.5370 125° Southeast 531 611 36,900  Level FlightAware ADS-B
Thu 09:00:00 AM 35.3950 28.6290 125° Southeast 529 609 36,900  Level FlightAware ADS-B
Thu 09:00:43 AM 35.3340 28.7350 125° Southeast 529 609 36,900  Level FlightAware ADS-B
Thu 09:01:27 AM 35.2730 28.8420 125° Southeast 529 609 36,900  Level FlightAware ADS-B
Thu 09:02:16 AM 35.2090 28.9530 125° Southeast 529 609 36,900  Level FlightAware ADS-B
Thu 09:03:04 AM 35.1520 29.0530 125° Southeast 529 609 36,900  Level FlightAware ADS-B
Thu 09:03:46 AM 35.0790 29.1780 125° Southeast 527 606 36,900  Level FlightAware ADS-B
Thu 09:04:36 AM 35.0170 29.2850 125° Southeast 527 606 36,900  Level FlightAware ADS-B
Thu 09:05:16 AM 34.9640 29.3760 125° Southeast 525 604 36,900  Level FlightAware ADS-B
Thu 09:05:52 AM 34.9210 29.4500 125° Southeast 525 604 36,900  Level FlightAware ADS-B
Thu 09:06:41 AM 34.8310 29.6020 126° Southeast 524 603 36,900  Level FlightAware ADS-B
Thu 09:07:22 AM 34.7750 29.6980 125° Southeast 523 602 36,900  Level FlightAware ADS-B
Thu 09:08:01 AM 34.7170 29.7960 126° Southeast 522 601 36,900  Level FlightAware ADS-B
Thu 09:08:52 AM 34.6520 29.9070 125° Southeast 522 601 36,900  Level FlightAware ADS-B
Thu 09:09:33 AM 34.6040 29.9910 125° Southeast 522 601 36,900  Level FlightAware ADS-B
Thu 09:10:29 AM 34.5210 30.1560 121° Southeast 520 598 36,900  Level FlightAware ADS-B
Thu 09:11:29 AM 34.4490 30.3050 120° Southeast 524 603 36,900  Level FlightAware ADS-B
Thu 09:12:09 AM 34.4010 30.4060 120° Southeast 524 603 36,900  Level FlightAware ADS-B
Thu 09:12:51 AM 34.3520 30.5100 120° Southeast 524 603 36,900  Level FlightAware ADS-B
Thu 09:13:36 AM 34.2950 30.6280 120° Southeast 522 601 36,900  Level FlightAware ADS-B
Thu 09:14:17 AM 34.2450 30.7340 120° Southeast 521 600 36,900  Level FlightAware ADS-B
Thu 09:14:57 AM 34.2000 30.8270 120° Southeast 520 598 36,900  Level FlightAware ADS-B
Thu 09:15:37 AM 34.1540 30.9210 121° Southeast 518 596 36,900  Level FlightAware ADS-B
Thu 09:16:24 AM 34.0940 31.0450 120° Southeast 515 593 36,900  Level FlightAware ADS-B
Thu 09:17:02 AM 34.0450 31.1460 120° Southeast 513 590 36,900  Level FlightAware ADS-B
Thu 09:17:41 AM 33.9980 31.2420 121° Southeast 511 588 36,900  Level FlightAware ADS-B
Thu 09:18:17 AM 33.9560 31.3280 120° Southeast 510 587 36,900  Level FlightAware ADS-B
Thu 09:18:59 AM 33.9070 31.4300 120° Southeast 509 586 36,900  Level FlightAware ADS-B
Thu 09:19:45 AM 33.8510 31.5440 121° Southeast 508 585 36,900  Level FlightAware ADS-B
Thu 09:19:54 AM 33.8400 31.5660 121° Southeast 507 583 36,900  Level FlightAware ADS-B
Thu 09:21:40 AM 33.7120 31.8250 121° Southeast 508 585 36,900 -41 Level FlightAware ADS-B
Thu 09:22:21 AM 33.6630 31.9230 121° Southeast 507 583 36,800 -815 Descending FlightAware ADS-B
Thu 09:23:01 AM 33.6160 32.0180 121° Southeast 512 589 35,800 -1,143 Descending FlightAware ADS-B
Thu 09:23:45 AM 33.5640 32.1230 121° Southeast 507 583 35,200 -847 Descending FlightAware ADS-B
Thu 09:24:26 AM 33.5160 32.2200 121° Southeast 505 581 34,600 -759 Descending FlightAware ADS-B
Thu 09:25:04 AM 33.4830 32.2860 121° Southeast 504 580 34,200 -832 Descending FlightAware ADS-B
Thu 09:26:07 AM 33.3970 32.4560 121° Southeast 501 577 33,200 -928 Descending FlightAware ADS-B
Thu 09:26:41 AM 33.3530 32.5430 121° Southeast 500 575 32,700 -750 Descending FlightAware ADS-B
Thu 09:27:19 AM 33.3070 32.6350 121° Southeast 496 571 32,300 -600 Descending FlightAware ADS-B
Thu 09:28:01 AM 33.2570 32.7340 121° Southeast 486 559 31,900 -600 Descending FlightAware ADS-B
Thu 09:28:39 AM 33.2100 32.8260 121° Southeast 485 558 31,500 -688 Descending FlightAware ADS-B
Thu 09:29:37 AM 33.1430 32.9580 121° Southeast 474 545 30,800 -1,085 Descending FlightAware ADS-B
Thu 09:30:13 AM 33.1090 33.0240 122° Southeast 468 539 29,800 -2,049 Descending FlightAware ADS-B
Thu 09:30:59 AM 33.0520 33.1360 121° Southeast 458 527 28,000 -1,689 Descending FlightAware ADS-B
Thu 09:31:56 AM 32.9950 33.2480 121° Southeast 447 514 26,900 -2,040 Descending FlightAware ADS-B
Thu 09:32:39 AM 32.9450 33.3450 122° Southeast 429 494 24,600 -2,582 Descending FlightAware ADS-B
Thu 09:33:15 AM 32.9090 33.4130 122° Southeast 421 484 23,500 -1,895 Descending FlightAware ADS-B
Thu 09:33:55 AM 32.8690 33.4920 121° Southeast 411 473 22,200 -1,857 Descending FlightAware ADS-B
Thu 09:34:39 AM 32.8240 33.5780 122° Southeast 400 460 20,900 -1,846 Descending FlightAware ADS-B
Thu 09:35:13 AM 32.7910 33.6410 122° Southeast 391 450 19,800 -1,760 Descending FlightAware ADS-B
Thu 09:35:54 AM 32.7530 33.7140 122° Southeast 382 440 18,700 -1,683 Descending FlightAware ADS-B
Thu 09:36:35 AM 32.7150 33.7880 121° Southeast 383 441 17,500 -1,778 Descending FlightAware ADS-B
Thu 09:37:15 AM 32.6770 33.8620 121° Southeast 387 445 16,300 -1,735 Descending FlightAware ADS-B
Thu 09:37:58 AM 32.6370 33.9370 122° Southeast 377 434 15,100 -1,705 Descending FlightAware ADS-B
Thu 09:38:43 AM 32.5960 34.0150 122° Southeast 367 422 13,800 -1,694 Descending FlightAware ADS-B
Thu 09:39:23 AM 32.5610 34.0820 122° Southeast 357 411 12,700 -1,615 Descending FlightAware ADS-B
Thu 09:40:01 AM 32.5270 34.1460 122° Southeast 349 402 11,700 -1,579 Descending FlightAware ADS-B
Thu 09:40:39 AM 32.4920 34.2010 127° Southeast 342 394 10,700 -1,037 Descending FlightAware ADS-B
Thu 09:41:22 AM 32.4460 34.2560 135° Southeast 311 358 10,300 -682 Descending FlightAware ADS-B
Thu 09:42:07 AM 32.4010 34.3080 136° Southeast 286 329 9,700 -952 Descending FlightAware ADS-B
Thu 09:42:25 AM 32.3850 34.3270 135° Southeast 286 329 9,300 -1,125 Descending FlightAware ADS-B
Thu 09:42:55 AM 32.3550 34.3620 135° Southeast 290 334 8,800 -537 Descending FlightAware ADS-B
Thu 09:43:32 AM 32.3260 34.3960 135° Southeast 291 335 8,700 -98 Descending FlightAware ADS-B
Thu 09:43:56 AM 32.3070 34.4190 134° Southeast 291 335 8,700  Level FlightAware ADS-B
Thu 09:44:32 AM 32.2770 34.4540 135° Southeast 291 335 8,700 -868 Level FlightAware ADS-B
Thu 09:47:00 AM 32.0506 34.7817 115° Southeast  Level FlightAware Approximate
Thu 09:47:25 AM 32.1490 34.6830 115° Southeast 5,200  Level FlightAware ADS-B
Thu 09:47:58 AM 32.1290 34.7190 123° Southeast 274 315 5,200  Level FlightAware ADS-B
Thu 09:48:20 AM 32.1130 34.7460 125° Southeast 257 296 5,200  Level FlightAware ADS-B
Thu 09:49:02 AM 32.0830 34.7960 125° Southeast 254 292 5,200 -182 Level FlightAware ADS-B
Thu 09:49:26 AM 32.0660 34.8170 134° Southeast 245 282 5,000 -500 Descending FlightAware ADS-B
Thu 09:49:50 AM 32.0470 34.8380 137° Southeast 242 278 4,800 -714 Descending FlightAware ADS-B
Thu 09:50:08 AM 32.0290 34.8580 137° Southeast 242 278 4,500 -1,435 Descending FlightAware ADS-B
Thu 09:50:36 AM 32.0060 34.8870 133° Southeast 245 282 3,700 -1,650 Descending FlightAware ADS-B
Thu 09:50:48 AM 32.0020 34.9000 110° East 244 281 3,400 -1,200 Descending FlightAware ADS-B
Thu 09:51:16 AM 32.0050 34.9310 83° East 227 261 2,900 -811 Descending FlightAware ADS-B
Thu 09:52:02 AM 32.0170 34.9840 75° East 224 258 2,400 -652 Descending FlightAware ADS-B
Thu 09:54:00 AM 32.0095 34.8769 265° West  Level Estimated
Thu 09:54:18 AM 32.0410 34.8860 265° West 55 63  Level FlightAware ADS-B
Thu 09:54:30 AM 32.0400 34.8830 249° West 47 54  Level FlightAware ADS-B

Login

Don't have an account? Register now (free) for customized features, flight alerts, and more!